Delray Beach, FL

1:50 PM EST on February 24, 2017 (GMT -0500)
J-Ball at Mizner Country Club | | Change Station

Elev 19 ft 26.43 °N, 80.18 °W | Updated 41 seconds ago

Partly Cloudy
Partly Cloudy
82.7 °F
Feels Like 87 °F
N
1.0
Wind Variable Wind from NW
Gusts 2.0 mph

Today
High -- | Low -- °F
--% Chance of Precip.
Yesterday
High -- | Low -- °F
Precip. -- in
Pressure 29.78 in
Visibility 10.0 miles
Clouds Clear
Heat Index 87 °F
Dew Point 71 °F
Humidity 67%
Rainfall 0.00 in
Snow Depth Not available.
6:48 AM 6:19 PM
Waning Crescent, 4% visible
METAR KPMP 241753Z 34005KT 10SM CLR 27/18 A2977 RMK AO2 SLP083 T02720183 10272 20189 58014
Pressure 29.78 in
Visibility 10.0 miles
Clouds Clear
Heat Index 87 °F
Dew Point 71 °F
Humidity 67%
Rainfall 0.00 in
Snow Depth Not available.
6:48 AM 6:19 PM
Waning Crescent, 4% visible
METAR KPMP 241753Z 34005KT 10SM CLR 27/18 A2977 RMK AO2 SLP083 T02720183 10272 20189 58014

Get Your Daily Forecast Email!

Thanks for signing up!

Be on the lookout for a verification email in your inbox.

You'll start receiving the daily forecast at 8 AM.

×

10-Day Weather Forecast

Almanac

Astronomy

Feb. 24, 2017 Rise Set
Actual Time
Civil Twilight
Nautical Twilight
Astronomical Twilight
Moon
Length of Visible Light
Length of Day
Tomorrow will be .
, % of the Moon is Illuminated

Today's Extremes

State Highs State Lows

Community

WunderPhotos

Upload Photos

1,962,540 photos uploaded!

WunderBlog® & News

Nearby

Air Quality

  Air Quality AQ Index Pollutant
Not available.

Snow Depth

Station Depth Elevation

Earthquake Activity

City Distance Mag. Time & Date
Minimum magnitude displayed is 2.5.

Coastal Water Temperatures

Place Temperature

Stations

Nearby Weather Stations

Station Location Temp. Windchill Dew Point Humidity Wind Precip. Elev Updated Type
                   

Watches & Warnings

There are currently no watches in effect.